Time;durP1;ratioP1;P1;durP2;ratioP2;P2;SDS_P1;SDS_P2;PMS_P1;PMS_P2;Temp;Humidity;BMP_temperature;BMP_pressure;BME280_temperature;BME280_humidity;BME280_pressure;Samples;Min_cycle;Max_cycle;Signal;HPM_P1;HPM_P2
2021/08/30 00:00:08;;;;;;;12.25;5.50;;;;;;;14.71;83.28;102293.28;4864759;29;20064;-87
2021/08/30 00:02:34;;;;;;;10.30;5.22;;;;;;;14.69;83.54;102287.22;4887687;29;20030;-87
2021/08/30 00:05:02;;;;;;;9.38;5.28;;;;;;;14.66;83.48;102299.22;4873925;29;20024;-87
2021/08/30 00:07:28;;;;;;;9.55;5.75;;;;;;;14.61;83.45;102287.19;4868883;29;20033;-87
2021/08/30 00:09:53;;;;;;;11.18;5.78;;;;;;;14.58;83.49;102291.06;4842467;29;20020;-87
2021/08/30 00:12:19;;;;;;;9.93;5.55;;;;;;;14.59;83.82;102295.47;4847850;29;20039;-87
2021/08/30 00:14:45;;;;;;;9.73;5.32;;;;;;;14.60;83.83;102290.91;4872745;29;20397;-88
2021/08/30 00:17:10;;;;;;;11.88;6.00;;;;;;;14.50;84.03;102291.88;4862169;29;20084;-87
2021/08/30 00:19:36;;;;;;;9.00;5.57;;;;;;;14.60;83.76;102290.91;4872045;29;20032;-87
2021/08/30 00:22:03;;;;;;;7.43;5.03;;;;;;;14.61;83.66;102298.03;4871982;29;20503;-87
2021/08/30 00:24:28;;;;;;;9.90;6.07;;;;;;;14.44;83.61;102272.72;4858674;29;20040;-87
2021/08/30 00:26:55;;;;;;;10.85;5.88;;;;;;;14.65;83.44;102296.66;4862303;29;20041;-87
2021/08/30 00:29:25;;;;;;;9.40;5.70;;;;;;;14.68;83.07;102294.47;4858402;29;20037;-87
2021/08/30 00:31:59;;;;;;;13.77;6.65;;;;;;;14.68;82.86;102288.22;4872180;29;20033;-88
2021/08/30 00:34:25;;;;;;;11.52;6.60;;;;;;;14.57;82.75;102280.41;4858701;29;20047;-87
2021/08/30 00:36:51;;;;;;;11.88;6.57;;;;;;;14.65;82.18;102278.56;4857820;29;20029;-86
2021/08/30 00:39:18;;;;;;;13.35;6.20;;;;;;;14.68;81.67;102282.78;4854118;29;20043;-87
2021/08/30 00:41:45;;;;;;;11.45;5.78;;;;;;;14.71;81.07;102285.16;4888245;29;20445;-87
2021/08/30 00:44:10;;;;;;;13.00;6.70;;;;;;;14.63;80.99;102272.47;4855514;29;20028;-87
2021/08/30 00:46:36;;;;;;;10.88;6.25;;;;;;;14.63;80.27;102279.72;4859431;29;20415;-87
2021/08/30 00:49:01;;;;;;;12.27;6.55;;;;;;;14.59;80.25;102278.38;4857121;29;20547;-87
2021/08/30 00:51:27;;;;;;;14.20;6.43;;;;;;;14.61;80.21;102276.38;4874115;29;20407;-87
2021/08/30 00:53:53;;;;;;;10.10;5.57;;;;;;;14.56;80.61;102268.72;4868334;29;20044;-88
2021/08/30 00:56:18;;;;;;;13.27;6.35;;;;;;;14.43;81.08;102266.47;4856946;29;20025;-87
2021/08/30 00:58:45;;;;;;;12.30;5.68;;;;;;;14.51;81.41;102277.31;4844425;29;20508;-87
2021/08/30 01:01:12;;;;;;;14.65;6.43;;;;;;;14.48;81.65;102280.34;4858596;29;20028;-87
2021/08/30 01:03:38;;;;;;;10.60;6.15;;;;;;;14.48;81.63;102276.81;4858045;29;21047;-87
2021/08/30 01:06:35;;;;;;;15.63;6.43;;;;;;;14.50;81.33;102275.63;4871771;29;20032;-87
2021/08/30 01:09:08;;;;;;;11.82;6.47;;;;;;;14.57;81.31;102280.41;4845647;29;20692;-87
2021/08/30 01:11:37;;;;;;;11.50;6.75;;;;;;;14.58;81.09;102282.97;4870922;29;20372;-87
2021/08/30 01:14:08;;;;;;;13.27;6.50;;;;;;;14.61;81.04;102279.06;4855647;29;20033;-87
2021/08/30 01:16:34;;;;;;;11.18;6.57;;;;;;;14.57;80.99;102269.56;4862012;29;20033;-87
2021/08/30 01:19:00;;;;;;;9.95;6.13;;;;;;;14.58;81.00;102290.19;4846878;29;20076;-87
2021/08/30 01:21:31;;;;;;;13.60;6.68;;;;;;;14.43;81.17;102269.16;4890694;29;20032;-87
2021/08/30 01:24:11;;;;;;;9.48;5.82;;;;;;;14.43;81.56;102271.03;4878934;29;20027;-87
2021/08/30 01:26:41;;;;;;;11.38;6.43;;;;;;;14.43;81.08;102285.41;4887022;29;20040;-87
2021/08/30 01:29:12;;;;;;;11.00;6.47;;;;;;;14.43;81.27;102282.69;4861960;29;20088;-87
2021/08/30 01:31:41;;;;;;;10.23;6.45;;;;;;;14.45;81.34;102282.53;4872036;29;20928;-87
2021/08/30 01:34:06;;;;;;;10.55;6.07;;;;;;;14.37;81.72;102277.94;4871110;29;20028;-87
2021/08/30 01:36:32;;;;;;;11.80;6.75;;;;;;;14.39;81.79;102280.47;4870422;29;20037;-87
2021/08/30 01:38:59;;;;;;;12.52;6.47;;;;;;;14.40;81.95;102283.03;4860756;29;20504;-87
2021/08/30 01:41:26;;;;;;;9.80;5.70;;;;;;;14.40;82.35;102280.31;4870894;29;20033;-87
2021/08/30 01:43:52;;;;;;;11.40;5.85;;;;;;;14.33;82.30;102278.44;4873771;29;20056;-87
2021/08/30 01:46:18;;;;;;;11.38;5.75;;;;;;;14.14;82.52;102258.75;4871008;29;20959;-88
2021/08/30 01:48:49;;;;;;;14.98;7.03;;;;;;;14.23;82.97;102276.69;4850509;29;20032;-87
2021/08/30 01:51:20;;;;;;;12.02;6.13;;;;;;;14.22;83.11;102282.28;4858772;29;20036;-87
2021/08/30 01:53:47;;;;;;;10.65;6.03;;;;;;;14.17;83.31;102282.75;4876296;29;20137;-87
2021/08/30 01:56:14;;;;;;;11.57;6.15;;;;;;;14.18;83.14;102280.91;4864144;29;20116;-88
2021/08/30 02:01:25;;;;;;;11.85;6.78;;;;;;;14.15;83.50;102270.41;4875375;29;20032;-87
2021/08/30 02:03:50;;;;;;;11.05;5.28;;;;;;;14.12;83.88;102282.41;4847276;29;20032;-88
2021/08/30 02:06:16;;;;;;;12.13;5.60;;;;;;;14.14;84.25;102276.84;4876038;29;20036;-87
2021/08/30 02:08:42;;;;;;;11.55;5.85;;;;;;;14.11;84.33;102267.19;4856784;29;20055;-87
2021/08/30 02:11:10;;;;;;;11.57;6.13;;;;;;;14.12;84.43;102268.88;4874882;29;20048;-88
2021/08/30 02:13:36;;;;;;;10.98;6.13;;;;;;;14.16;84.66;102272.13;4858545;29;20092;-88
2021/08/30 02:16:02;;;;;;;10.48;6.03;;;;;;;14.17;84.63;102271.94;4891362;29;20032;-87
2021/08/30 02:18:41;;;;;;;12.65;6.13;;;;;;;14.26;84.83;102272.81;4854893;29;20053;-88
2021/08/30 02:21:13;;;;;;;10.32;5.97;;;;;;;14.22;85.01;102264.19;4856345;29;20555;-88
2021/08/30 02:24:02;;;;;;;12.52;6.70;;;;;;;14.31;84.67;102278.59;4889956;29;20626;-86
2021/08/30 02:26:33;;;;;;;13.30;6.53;;;;;;;14.33;84.13;102263.03;4877962;29;20076;-87
2021/08/30 02:29:01;;;;;;;10.95;6.22;;;;;;;14.38;83.67;102257.97;4849431;29;20064;-87
2021/08/30 02:31:29;;;;;;;12.15;6.90;;;;;;;14.43;83.65;102260.19;4859701;29;20404;-86
2021/08/30 02:33:55;;;;;;;10.82;6.22;;;;;;;14.48;83.66;102268.69;4875133;29;20033;-86
2021/08/30 02:36:21;;;;;;;11.25;6.22;;;;;;;14.51;83.34;102271.91;4857776;29;21047;-88
2021/08/30 02:38:47;;;;;;;11.57;5.97;;;;;;;14.51;83.71;102271.06;4868473;29;20032;-87
2021/08/30 02:41:13;;;;;;;12.65;5.72;;;;;;;14.54;83.91;102272.63;4857001;29;20033;-87
2021/08/30 02:43:39;;;;;;;11.50;6.53;;;;;;;14.54;83.91;102265.34;4860670;29;20047;-87
2021/08/30 02:46:04;;;;;;;9.45;5.35;;;;;;;14.57;83.38;102265.00;4888928;29;20078;-89
2021/08/30 02:48:31;;;;;;;12.63;6.45;;;;;;;14.61;83.44;102263.66;4876904;29;20040;-88
2021/08/30 02:50:57;;;;;;;11.45;5.97;;;;;;;14.58;83.12;102265.84;4886814;29;20036;-88
2021/08/30 02:53:23;;;;;;;11.70;6.78;;;;;;;14.52;83.15;102260.06;4890925;29;20040;-87
2021/08/30 02:55:50;;;;;;;13.43;6.30;;;;;;;14.44;83.50;102268.16;4843317;29;20024;-87
2021/08/30 02:58:16;;;;;;;11.88;6.65;;;;;;;14.13;83.59;102226.44;4883329;29;20040;-88
2021/08/30 03:00:42;;;;;;;11.85;6.13;;;;;;;14.37;83.59;102269.84;4845296;29;20472;-88
2021/08/30 03:03:07;;;;;;;12.75;6.75;;;;;;;14.33;84.26;102257.63;4864896;29;20029;-88
2021/08/30 03:05:33;;;;;;;13.38;6.30;;;;;;;14.40;83.91;102266.78;4858333;29;20032;-87
2021/08/30 03:07:59;;;;;;;12.18;7.28;;;;;;;14.45;83.65;102269.00;4841624;29;20029;-87
2021/08/30 03:10:24;;;;;;;12.77;6.47;;;;;;;14.37;83.83;102263.53;4872700;29;20084;-88
2021/08/30 03:12:53;;;;;;;11.77;5.95;;;;;;;14.43;84.06;102263.75;4887279;29;20036;-88
2021/08/30 03:15:20;;;;;;;13.77;6.35;;;;;;;14.42;83.92;102262.06;4876533;29;20055;-87
2021/08/30 03:17:46;;;;;;;13.15;6.10;;;;;;;14.46;83.79;102262.56;4875077;29;20035;-88
2021/08/30 03:20:16;;;;;;;10.60;5.70;;;;;;;14.34;84.37;102256.59;4859000;29;20048;-88
2021/08/30 03:22:44;;;;;;;10.73;6.53;;;;;;;14.40;84.27;102264.09;4858572;29;20373;-87
2021/08/30 03:25:14;;;;;;;11.02;6.30;;;;;;;14.38;84.31;102260.69;4875796;29;20028;-87
2021/08/30 03:27:42;;;;;;;13.30;6.72;;;;;;;14.41;84.45;102254.94;4859544;29;20036;-87
2021/08/30 03:30:09;;;;;;;13.52;6.38;;;;;;;14.37;84.81;102250.88;4858830;29;20040;-88
2021/08/30 03:32:35;;;;;;;12.15;6.10;;;;;;;14.40;84.42;102257.84;4873679;29;20495;-88
2021/08/30 03:35:01;;;;;;;12.60;7.05;;;;;;;14.41;84.66;102248.69;4858654;29;20036;-87
2021/08/30 03:37:26;;;;;;;13.20;6.93;;;;;;;14.42;84.43;102243.13;4870782;29;20377;-88
2021/08/30 03:39:52;;;;;;;16.92;6.20;;;;;;;14.32;84.70;102237.00;4844448;29;20091;-88
2021/08/30 03:42:18;;;;;;;11.68;6.40;;;;;;;14.41;84.95;102257.66;4868493;29;20434;-87
2021/08/30 03:44:43;;;;;;;12.25;6.28;;;;;;;14.35;84.80;102244.78;4873514;29;20035;-87
2021/08/30 03:47:10;;;;;;;13.30;6.68;;;;;;;14.45;84.76;102260.91;4885594;29;20064;-88
2021/08/30 03:49:36;;;;;;;14.02;6.70;;;;;;;14.30;84.65;102244.44;4876494;29;20042;-88
2021/08/30 03:52:02;;;;;;;11.65;5.68;;;;;;;14.30;85.03;102258.81;4859628;29;20032;-88
2021/08/30 03:54:29;;;;;;;15.02;6.35;;;;;;;14.24;85.28;102251.34;4856726;29;20037;-87
2021/08/30 03:56:55;;;;;;;12.73;6.35;;;;;;;14.21;85.12;102261.63;4871814;29;20039;-88
2021/08/30 03:59:21;;;;;;;10.38;6.03;;;;;;;14.18;85.23;102256.53;4856764;29;20041;-87
2021/08/30 04:01:50;;;;;;;13.05;6.05;;;;;;;14.11;85.32;102255.53;4885635;29;20024;-87
2021/08/30 04:04:22;;;;;;;11.80;5.95;;;;;;;14.08;85.34;102254.00;4871927;29;20036;-88
2021/08/30 04:06:48;;;;;;;14.05;6.45;;;;;;;14.08;85.61;102254.84;4855813;29;20052;-87
2021/08/30 04:09:18;;;;;;;15.05;6.13;;;;;;;14.02;85.50;102247.34;4876120;29;20024;-87
2021/08/30 04:11:44;;;;;;;10.60;5.80;;;;;;;14.00;85.59;102254.81;4857727;29;20480;-87
2021/08/30 04:14:11;;;;;;;12.20;5.82;;;;;;;13.97;85.66;102252.44;4840725;29;20044;-87
2021/08/30 04:16:42;;;;;;;11.60;5.95;;;;;;;13.90;85.61;102253.22;4862623;29;20040;-88
2021/08/30 04:19:08;;;;;;;10.07;5.45;;;;;;;13.89;85.96;102254.22;4847026;29;20017;-88
2021/08/30 04:21:34;;;;;;;13.30;6.03;;;;;;;13.87;85.77;102262.50;4846816;29;20503;-88
2021/08/30 04:23:59;;;;;;;10.70;5.70;;;;;;;13.82;85.79;102260.28;4862651;29;20104;-88
2021/08/30 04:26:25;;;;;;;12.00;5.93;;;;;;;13.74;85.48;102252.13;4847179;29;20415;-89
2021/08/30 04:28:51;;;;;;;11.48;5.70;;;;;;;13.74;85.65;102262.94;4847332;29;20029;-88
2021/08/30 04:31:16;;;;;;;11.35;5.95;;;;;;;13.72;85.38;102266.81;4862914;29;20029;-88
2021/08/30 04:33:42;;;;;;;11.85;5.57;;;;;;;13.63;85.56;102272.16;4862955;29;20029;-88
2021/08/30 04:36:08;;;;;;;10.68;5.68;;;;;;;13.53;85.50;102260.59;4847494;29;20033;-88
2021/08/30 04:38:33;;;;;;;10.52;5.35;;;;;;;13.45;85.50;102257.84;4835712;29;20392;-88
2021/08/30 04:40:59;;;;;;;9.95;5.25;;;;;;;13.47;85.18;102269.34;4856616;29;20033;-88
2021/08/30 04:43:25;;;;;;;7.43;4.55;;;;;;;13.38;85.92;102268.44;4856268;29;20113;-88
2021/08/30 04:45:50;;;;;;;9.73;5.43;;;;;;;13.33;85.90;102265.34;4858262;29;20052;-88
2021/08/30 04:48:16;;;;;;;9.05;5.07;;;;;;;13.22;85.96;102259.31;4860846;29;20103;-88
2021/08/30 04:50:42;;;;;;;10.80;5.47;;;;;;;13.25;85.80;102267.94;4862168;29;20039;-88
2021/08/30 04:53:07;;;;;;;10.45;5.65;;;;;;;13.21;85.92;102272.00;4865527;29;20037;-89
2021/08/30 04:55:33;;;;;;;10.45;4.63;;;;;;;13.09;85.98;102268.66;4862724;29;20036;-88
2021/08/30 04:58:01;;;;;;;10.73;5.35;;;;;;;13.06;86.31;102271.69;4864957;29;20029;-87
2021/08/30 05:00:27;;;;;;;9.55;5.32;;;;;;;13.06;86.42;102268.97;4862348;29;20060;-87
2021/08/30 05:02:55;;;;;;;10.20;4.50;;;;;;;12.95;86.28;102253.88;4864790;29;20032;-87
2021/08/30 05:05:21;;;;;;;8.85;5.05;;;;;;;12.98;86.32;102277.84;4861488;29;20041;-88
2021/08/30 05:07:46;;;;;;;8.77;4.63;;;;;;;12.95;86.28;102278.16;4877716;29;20029;-88
2021/08/30 05:10:13;;;;;;;7.60;4.65;;;;;;;12.88;86.30;102276.22;4859167;29;20037;-88
2021/08/30 05:12:39;;;;;;;11.57;5.75;;;;;;;12.86;86.52;102272.84;4880133;29;20484;-87
2021/08/30 05:15:06;;;;;;;10.00;5.15;;;;;;;12.84;86.57;102278.41;4868506;29;20036;-88
2021/08/30 05:17:32;;;;;;;10.35;5.10;;;;;;;12.70;86.36;102263.59;4884014;29;20024;-87
2021/08/30 05:20:05;;;;;;;10.43;5.55;;;;;;;12.46;86.25;102222.84;4868449;29;20039;-87
2021/08/30 05:22:31;;;;;;;10.35;4.82;;;;;;;12.74;86.09;102281.16;4868675;29;20032;-87
2021/08/30 05:24:56;;;;;;;9.85;5.32;;;;;;;12.39;86.26;102228.00;4853124;29;20040;-88
2021/08/30 05:27:22;;;;;;;10.45;4.47;;;;;;;12.38;86.53;102238.94;4868434;29;20396;-87
2021/08/30 05:29:49;;;;;;;9.02;4.47;;;;;;;12.64;86.57;102288.47;4860021;29;20040;-88
2021/08/30 05:32:15;;;;;;;9.32;4.90;;;;;;;12.64;86.90;102285.78;4874700;29;20519;-88
2021/08/30 05:34:40;;;;;;;10.60;4.75;;;;;;;12.52;86.79;102265.41;4876004;29;20028;-88
2021/08/30 05:37:06;;;;;;;10.13;5.20;;;;;;;12.62;86.88;102293.19;4863413;29;20024;-87
2021/08/30 05:39:31;;;;;;;11.10;5.20;;;;;;;12.45;86.93;102264.31;4854880;29;20500;-87
2021/08/30 05:41:57;;;;;;;9.15;5.10;;;;;;;12.45;86.77;102269.72;4861706;29;20025;-87
2021/08/30 05:44:23;;;;;;;9.25;4.82;;;;;;;12.31;86.92;102242.25;4867890;29;20055;-88
2021/08/30 05:46:50;;;;;;;9.05;5.88;;;;;;;12.37;87.19;102240.78;4883316;29;20033;-87
2021/08/30 05:49:16;;;;;;;11.93;5.28;;;;;;;12.72;87.01;102301.22;4899081;29;20403;-87
2021/08/30 05:51:58;;;;;;;8.75;5.40;;;;;;;12.82;87.14;102306.56;4898925;29;20032;-88
2021/08/30 05:54:24;;;;;;;12.68;4.95;;;;;;;12.78;87.37;102292.53;4867846;29;20036;-87
2021/08/30 05:56:49;;;;;;;10.20;5.13;;;;;;;12.85;87.35;102296.28;4867674;29;20395;-88
2021/08/30 05:59:15;;;;;;;10.60;5.50;;;;;;;12.58;88.06;102250.47;4867727;29;20021;-88
2021/08/30 06:01:41;;;;;;;8.57;5.13;;;;;;;12.95;88.17;102302.47;4867449;29;20043;-88
2021/08/30 06:04:07;;;;;;;8.35;4.70;;;;;;;12.69;87.72;102245.69;4867617;29;20046;-88
2021/08/30 06:06:33;;;;;;;11.07;5.07;;;;;;;12.89;87.51;102267.16;4867758;29;20035;-90
2021/08/30 06:08:58;;;;;;;11.93;4.55;;;;;;;12.80;87.93;102247.31;4883080;29;20476;-89
2021/08/30 06:11:24;;;;;;;11.43;4.10;;;;;;;13.00;88.07;102279.56;4883718;29;20120;-87
2021/08/30 06:13:50;;;;;;;8.63;4.32;;;;;;;13.00;88.57;102293.06;4852753;29;20032;-88
2021/08/30 06:16:39;;;;;;;7.82;4.43;;;;;;;13.21;88.47;102309.81;4883228;29;20028;-87
2021/08/30 06:19:05;;;;;;;9.95;4.35;;;;;;;12.91;88.32;102252.50;4883190;29;20062;-87
2021/08/30 06:21:31;;;;;;;9.85;5.18;;;;;;;13.19;88.24;102304.53;4875524;29;20719;-88
2021/08/30 06:23:57;;;;;;;9.75;3.78;;;;;;;13.20;88.69;102300.84;4858168;29;20143;-87
2021/08/30 06:26:24;;;;;;;12.85;4.25;;;;;;;13.09;88.82;102274.06;4865562;29;20056;-87
2021/08/30 06:28:50;;;;;;;11.75;4.70;;;;;;;13.14;89.25;102290.66;4837676;29;21593;-87
2021/08/30 06:31:15;;;;;;;10.63;4.72;;;;;;;13.35;89.49;102308.44;4864011;29;20040;-89
2021/08/30 06:33:41;;;;;;;14.30;5.10;;;;;;;13.41;89.48;102307.78;4875091;29;20032;-88
2021/08/30 06:36:07;;;;;;;13.73;5.45;;;;;;;13.54;89.55;102319.03;4870614;29;20029;-89
2021/08/30 06:38:33;;;;;;;16.00;5.15;;;;;;;13.56;89.69;102308.94;4844992;29;20088;-89
2021/08/30 06:40:58;;;;;;;17.90;5.80;;;;;;;13.53;89.35;102289.50;4858811;29;20044;-90
2021/08/30 06:43:24;;;;;;;14.68;5.10;;;;;;;13.71;89.20;102311.06;4873027;29;20032;-89
2021/08/30 06:45:50;;;;;;;13.20;5.63;;;;;;;13.81;89.18;102319.91;4847997;29;20097;-90
2021/08/30 06:48:15;;;;;;;11.40;5.80;;;;;;;13.88;89.05;102317.44;4865340;29;20029;-88
2021/08/30 06:50:42;;;;;;;12.23;5.72;;;;;;;13.92;88.60;102311.56;4881388;29;20040;-88
2021/08/30 06:53:11;;;;;;;16.30;5.90;;;;;;;14.10;88.44;102324.13;4881939;29;20109;-88
2021/08/30 06:55:36;;;;;;;13.95;7.13;;;;;;;14.25;88.20;102323.38;4880804;29;20032;-88
2021/08/30 06:58:02;;;;;;;13.50;6.95;;;;;;;14.38;88.37;102324.78;4897038;29;20124;-88
2021/08/30 07:00:28;;;;;;;13.07;7.15;;;;;;;14.48;88.06;102320.94;4881779;29;20043;-88
2021/08/30 07:02:54;;;;;;;17.73;6.68;;;;;;;14.39;87.95;102285.88;4864400;29;20122;-87
2021/08/30 07:05:21;;;;;;;12.38;6.28;;;;;;;14.73;88.24;102323.75;4877256;29;20055;-87
2021/08/30 07:07:46;;;;;;;11.68;5.50;;;;;;;14.83;87.87;102326.31;4862119;29;20032;-88
2021/08/30 07:10:12;;;;;;;10.80;5.50;;;;;;;14.93;87.61;102314.34;4877028;29;20027;-88
2021/08/30 07:12:38;;;;;;;10.73;6.10;;;;;;;15.03;87.09;102313.31;4861025;29;20396;-88
2021/08/30 07:15:04;;;;;;;10.18;4.82;;;;;;;15.13;86.68;102319.44;4895169;29;20036;-87
2021/08/30 07:17:29;;;;;;;12.60;5.63;;;;;;;15.20;86.58;102315.03;4861926;29;20036;-87
2021/08/30 07:19:55;;;;;;;9.10;5.20;;;;;;;15.29;86.10;102332.97;4845136;29;20026;-87
2021/08/30 07:22:21;;;;;;;10.77;6.82;;;;;;;15.33;85.68;102319.97;4857965;29;20032;-86
2021/08/30 07:24:47;;;;;;;9.52;5.22;;;;;;;15.37;85.07;102332.16;4850105;29;20535;-86
2021/08/30 07:27:12;;;;;;;10.75;5.25;;;;;;;15.33;85.09;102328.94;4846284;29;20028;-88
2021/08/30 07:29:38;;;;;;;9.80;5.03;;;;;;;15.33;85.00;102323.50;4869276;29;20466;-88
2021/08/30 07:32:06;;;;;;;8.68;4.88;;;;;;;15.35;84.67;102317.94;4876951;29;20027;-87
2021/08/30 07:34:32;;;;;;;9.65;4.90;;;;;;;15.38;84.53;102333.84;4863507;29;20047;-87
2021/08/30 07:36:57;;;;;;;10.13;5.03;;;;;;;15.41;84.67;102333.50;4886352;29;20392;-87
2021/08/30 07:39:24;;;;;;;12.15;4.93;;;;;;;15.38;84.37;102320.31;4864122;29;20080;-87
2021/08/30 07:41:51;;;;;;;10.55;5.50;;;;;;;15.52;84.05;102332.31;4861274;29;20065;-88
2021/08/30 07:44:16;;;;;;;9.20;5.95;;;;;;;15.56;83.71;102339.97;4852111;29;20032;-87
2021/08/30 07:46:45;;;;;;;19.17;5.85;;;;;;;15.56;83.92;102328.28;4877811;29;20033;-88
2021/08/30 07:49:31;;;;;;;36.00;8.10;;;;;;;15.63;83.60;102336.56;4867512;29;20100;-87
2021/08/30 07:51:57;;;;;;;9.38;4.93;;;;;;;15.64;83.50;102340.94;4860571;29;20025;-86
2021/08/30 07:54:23;;;;;;;10.93;4.90;;;;;;;15.66;83.31;102342.47;4862014;29;20043;-88
2021/08/30 07:56:48;;;;;;;10.23;5.05;;;;;;;15.71;83.31;102333.88;4860390;29;20029;-88
2021/08/30 07:59:14;;;;;;;11.35;5.97;;;;;;;15.80;82.97;102338.28;4860612;29;20028;-88
2021/08/30 08:01:40;;;;;;;11.52;6.00;;;;;;;15.92;83.26;102336.03;4860774;29;20092;-87
2021/08/30 08:04:05;;;;;;;18.02;6.72;;;;;;;16.03;82.46;102341.09;4865310;29;20512;-88
2021/08/30 08:06:31;;;;;;;11.02;6.03;;;;;;;16.14;82.16;102339.88;4876841;29;20036;-88
2021/08/30 08:08:57;;;;;;;8.63;5.15;;;;;;;16.23;81.82;102339.69;4865167;29;20472;-88
2021/08/30 08:11:23;;;;;;;10.55;5.38;;;;;;;16.04;81.02;102313.81;4881213;29;20040;-88
2021/08/30 08:14:09;;;;;;;10.23;5.80;;;;;;;16.24;81.19;102344.06;4893660;29;20056;-89
2021/08/30 08:16:39;;;;;;;11.15;5.78;;;;;;;16.15;80.90;102323.44;4871778;29;20109;-87
2021/08/30 08:19:05;;;;;;;11.65;5.55;;;;;;;16.31;80.83;102344.25;4864739;29;20484;-87
2021/08/30 08:21:33;;;;;;;10.70;5.22;;;;;;;16.39;80.86;102349.63;4877658;29;20059;-88
2021/08/30 08:24:00;;;;;;;11.25;5.65;;;;;;;16.45;80.70;102338.06;4877686;29;20032;-88
2021/08/30 08:26:25;;;;;;;11.20;5.30;;;;;;;16.59;80.26;102343.78;4862788;29;20028;-87
2021/08/30 08:28:51;;;;;;;10.35;5.30;;;;;;;16.62;80.11;102330.72;4868023;29;20032;-87
2021/08/30 08:31:16;;;;;;;9.85;5.53;;;;;;;16.63;79.17;102345.13;4861783;29;20028;-87
2021/08/30 08:33:44;;;;;;;10.35;5.25;;;;;;;16.47;79.36;102332.47;4866888;29;20028;-87
2021/08/30 08:36:10;;;;;;;8.93;5.47;;;;;;;16.57;79.77;102356.72;4858725;29;20507;-88
2021/08/30 08:38:36;;;;;;;9.65;6.20;;;;;;;16.54;79.80;102349.75;4847682;29;20032;-87
2021/08/30 08:41:02;;;;;;;11.77;6.03;;;;;;;16.45;79.59;102354.34;4866893;29;20148;-88
2021/08/30 08:43:27;;;;;;;11.85;5.40;;;;;;;16.45;79.52;102350.81;4859017;29;20040;-89
2021/08/30 08:45:53;;;;;;;10.95;5.80;;;;;;;16.43;79.63;102359.13;4861966;29;20464;-87
2021/08/30 08:48:20;;;;;;;11.70;6.05;;;;;;;16.45;79.94;102375.22;4855984;29;20055;-89
2021/08/30 08:50:46;;;;;;;9.23;5.75;;;;;;;16.42;80.10;102371.00;4867902;29;20024;-87
2021/08/30 08:53:12;;;;;;;8.65;5.78;;;;;;;16.40;80.14;102372.19;4853944;29;20044;-87
2021/08/30 08:55:38;;;;;;;11.05;5.57;;;;;;;16.37;79.67;102369.84;4871290;29;20085;-87
2021/08/30 08:58:12;;;;;;;10.05;6.20;;;;;;;16.37;79.71;102383.41;4854457;29;20031;-87
2021/08/30 09:00:45;;;;;;;13.13;5.93;;;;;;;16.40;80.26;102388.50;4848818;29;20029;-87
2021/08/30 09:03:14;;;;;;;12.63;5.78;;;;;;;16.42;80.51;102391.88;4873584;29;20574;-87
2021/08/30 09:05:40;;;;;;;9.45;6.05;;;;;;;16.36;80.59;102384.44;4878943;29;20839;-87
2021/08/30 09:08:05;;;;;;;9.38;5.40;;;;;;;16.31;80.39;102378.69;4863602;29;20032;-87
2021/08/30 09:10:37;;;;;;;10.30;5.45;;;;;;;16.35;80.53;102385.44;4870878;29;20500;-87
2021/08/30 09:13:05;;;;;;;12.65;5.78;;;;;;;16.12;80.22;102364.50;4861754;29;20036;-87
2021/08/30 09:15:30;;;;;;;11.73;5.80;;;;;;;16.20;80.19;102375.31;4879027;29;20400;-88
2021/08/30 09:17:57;;;;;;;14.55;5.90;;;;;;;16.27;80.03;102389.91;4849604;29;20021;-87
2021/08/30 09:20:30;;;;;;;8.38;5.47;;;;;;;16.26;80.28;102382.75;4871977;29;20040;-88
2021/08/30 09:23:09;;;;;;;11.35;5.25;;;;;;;16.25;80.10;102386.50;4844284;29;20065;-89
2021/08/30 09:25:35;;;;;;;9.52;5.53;;;;;;;16.29;80.67;102391.59;4876084;29;20040;-88
2021/08/30 09:28:13;;;;;;;10.93;5.68;;;;;;;16.32;80.45;102392.06;4870744;29;20032;-88
2021/08/30 09:30:39;;;;;;;9.50;5.75;;;;;;;16.39;80.24;102393.06;4892659;29;20499;-88
2021/08/30 09:33:05;;;;;;;11.68;5.82;;;;;;;16.44;80.51;102390.69;4859946;29;20092;-89
2021/08/30 09:35:30;;;;;;;10.00;5.50;;;;;;;16.49;80.37;102393.72;4863694;29;20032;-88
2021/08/30 09:38:17;;;;;;;14.38;6.07;;;;;;;16.54;80.13;102393.22;4868438;29;20613;-88
2021/08/30 09:40:43;;;;;;;8.18;4.68;;;;;;;16.52;79.98;102389.81;4850711;29;20020;-86
2021/08/30 09:43:18;;;;;;;10.45;6.30;;;;;;;16.59;79.96;102398.97;4859890;29;20033;-87
2021/08/30 09:45:44;;;;;;;11.55;5.18;;;;;;;16.61;79.77;102398.75;4882348;29;20513;-87
2021/08/30 09:48:13;;;;;;;10.57;5.53;;;;;;;16.66;79.45;102402.66;4849298;29;20032;-87
2021/08/30 09:50:43;;;;;;;9.23;5.18;;;;;;;16.67;79.02;102396.22;4871482;29;20115;-90
2021/08/30 09:53:09;;;;;;;10.48;5.28;;;;;;;16.64;78.76;102398.41;4880237;29;20025;-87
2021/08/30 09:55:36;;;;;;;10.48;5.65;;;;;;;16.62;78.67;102393.16;4848927;29;20044;-87
2021/08/30 09:58:05;;;;;;;8.50;5.05;;;;;;;16.64;78.81;102395.69;4865077;29;20032;-86
2021/08/30 10:00:31;;;;;;;9.73;5.50;;;;;;;16.67;78.86;102407.06;4849649;29;20051;-87
2021/08/30 10:02:59;;;;;;;9.05;5.95;;;;;;;16.68;78.99;102400.59;4877074;29;20036;-86
2021/08/30 10:05:26;;;;;;;11.02;6.45;;;;;;;16.80;78.94;102400.25;4838148;29;20104;-87
2021/08/30 10:07:55;;;;;;;9.32;5.10;;;;;;;16.86;78.43;102407.69;4888796;29;20045;-87
2021/08/30 10:10:23;;;;;;;10.13;5.60;;;;;;;16.92;78.06;102412.41;4888604;29;20033;-87
2021/08/30 10:12:49;;;;;;;9.95;5.05;;;;;;;16.89;77.00;102399.19;4861299;29;20032;-87
2021/08/30 10:15:19;;;;;;;9.80;5.32;;;;;;;16.88;76.58;102402.91;4875041;29;20115;-86
2021/08/30 10:17:48;;;;;;;9.85;5.57;;;;;;;17.08;76.32;102408.78;4861242;29;20473;-87
2021/08/30 10:20:21;;;;;;;11.57;5.15;;;;;;;17.13;75.66;102407.19;4881716;29;20033;-87
2021/08/30 10:23:07;;;;;;;11.83;5.43;;;;;;;17.20;75.91;102406.47;4863214;29;20972;-87
2021/08/30 10:25:34;;;;;;;10.52;5.18;;;;;;;17.23;75.69;102411.56;4868620;29;20282;-87
2021/08/30 10:28:06;;;;;;;8.10;4.68;;;;;;;17.18;76.08;102405.84;4877243;29;20025;-87
2021/08/30 10:30:36;;;;;;;10.98;5.28;;;;;;;17.14;76.40;102408.88;4862390;29;20032;-88
2021/08/30 10:33:05;;;;;;;10.00;5.35;;;;;;;17.14;76.37;102405.31;4862014;29;20031;-87
2021/08/30 10:35:34;;;;;;;8.50;5.03;;;;;;;17.13;75.92;102412.63;4868122;29;20884;-88
2021/08/30 10:38:06;;;;;;;12.18;5.75;;;;;;;17.08;75.82;102414.19;4875690;29;20014;-87
2021/08/30 10:40:36;;;;;;;8.95;4.90;;;;;;;17.15;75.55;102409.75;4871213;29;20124;-87
2021/08/30 10:43:09;;;;;;;10.07;5.55;;;;;;;17.20;74.89;102406.47;4869222;29;20032;-88
2021/08/30 10:46:03;;;;;;;7.65;4.72;;;;;;;17.34;74.16;102414.72;4884970;29;20036;-88
2021/08/30 10:48:51;;;;;;;8.00;4.93;;;;;;;17.38;74.03;102412.47;4873889;29;20032;-87
2021/08/30 10:51:32;;;;;;;11.13;4.85;;;;;;;17.34;73.87;102414.72;4869499;29;20504;-87
2021/08/30 10:54:01;;;;;;;8.93;4.93;;;;;;;17.28;73.83;102415.44;4860659;29;20033;-87
2021/08/30 10:56:56;;;;;;;10.63;5.30;;;;;;;17.22;73.29;102410.72;4871532;29;20032;-88
2021/08/30 10:59:27;;;;;;;8.15;4.72;;;;;;;17.21;72.47;102402.75;4889729;29;20059;-88
2021/08/30 11:01:59;;;;;;;10.00;4.88;;;;;;;17.31;72.45;102409.66;4877037;29;20064;-87
2021/08/30 11:04:33;;;;;;;10.18;5.90;;;;;;;17.49;72.40;102403.03;4866728;29;20024;-87
2021/08/30 11:06:59;;;;;;;8.75;5.65;;;;;;;17.66;71.89;102409.22;4870462;29;20040;-87
2021/08/30 11:09:25;;;;;;;10.07;5.43;;;;;;;17.74;70.67;102420.03;4852608;29;20505;-88
2021/08/30 11:11:51;;;;;;;10.50;5.30;;;;;;;17.67;68.64;102408.19;4891183;29;20119;-88
2021/08/30 11:14:18;;;;;;;8.73;5.05;;;;;;;17.64;67.87;102414.84;4873689;29;20094;-87
2021/08/30 11:16:44;;;;;;;9.25;4.88;;;;;;;17.56;67.96;102413.03;4888400;29;20527;-87
2021/08/30 11:19:13;;;;;;;8.15;4.05;;;;;;;17.56;67.79;102410.31;4885149;29;20052;-87
2021/08/30 11:21:57;;;;;;;8.23;4.53;;;;;;;17.55;68.03;102407.78;4862749;29;20543;-87
2021/08/30 11:24:32;;;;;;;9.40;5.28;;;;;;;17.61;68.11;102417.91;4868686;29;20511;-87